createdAt,value
2022-08-17T00:01:51.532Z,99515.38
2022-08-17T00:04:23.499Z,99516.53
2022-08-17T00:06:53.881Z,99515.94
2022-08-17T00:09:26.239Z,99516.13
2022-08-17T00:12:42.681Z,99513.06
2022-08-17T00:14:47.731Z,99514.19
2022-08-17T00:17:17.517Z,99512.41
2022-08-17T00:19:48.218Z,99510.56
2022-08-17T00:22:33.776Z,99511.41
2022-08-17T00:25:10.270Z,99517.28
2022-08-17T00:27:40.725Z,99517.44
2022-08-17T00:30:12.102Z,99514.09
2022-08-17T00:33:14.482Z,99514.22
2022-08-17T00:35:36.304Z,99512.94
2022-08-17T00:38:10.676Z,99503.19
2022-08-17T00:40:48.976Z,99509.31
2022-08-17T00:43:37.439Z,99506.81
2022-08-17T00:46:14.939Z,99508.50
2022-08-17T00:48:44.513Z,99512.38
2022-08-17T00:51:30.428Z,99513.25
2022-08-17T00:54:03.893Z,99517.78
2022-08-17T00:56:38.986Z,99519.63
2022-08-17T00:59:10.616Z,99513.13
2022-08-17T01:01:41.783Z,99518.31
2022-08-17T01:04:11.599Z,99519.22
2022-08-17T01:06:42.954Z,99520.78
2022-08-17T01:09:11.614Z,99519.81
2022-08-17T01:11:44.079Z,99529.25
2022-08-17T01:14:13.782Z,99526.59
2022-08-17T01:16:41.900Z,99527.78
2022-08-17T01:19:22.903Z,99531.84
2022-08-17T01:22:11.437Z,99534.56
2022-08-17T01:25:01.200Z,99541.91
2022-08-17T01:27:30.229Z,99541.38
2022-08-17T01:30:01.791Z,99548.22
2022-08-17T01:32:30.610Z,99539.13
2022-08-17T01:35:00.759Z,99547.66
2022-08-17T01:37:37.209Z,99540.12
2022-08-17T01:40:22.676Z,99542.88
2022-08-17T01:42:57.695Z,99540.81
2022-08-17T01:45:30.479Z,99548.66
2022-08-17T01:47:58.671Z,99546.44
2022-08-17T01:50:29.929Z,99546.16
2022-08-17T01:53:05.268Z,99549.63
2022-08-17T01:55:41.810Z,99545.00
2022-08-17T01:58:10.264Z,99548.06
2022-08-17T02:01:00.140Z,99544.03
2022-08-17T02:03:30.121Z,99538.84
2022-08-17T02:05:58.016Z,99541.94
2022-08-17T02:08:38.761Z,99546.25
2022-08-17T02:11:17.050Z,99545.13
2022-08-17T02:13:46.869Z,99534.09
2022-08-17T02:16:19.064Z,99540.47
2022-08-17T02:18:48.886Z,99536.47
2022-08-17T02:21:20.777Z,99532.78
2022-08-17T02:23:53.797Z,99532.25
2022-08-17T02:26:25.607Z,99536.75
2022-08-17T02:28:56.396Z,99539.00
2022-08-17T02:31:27.036Z,99538.28
2022-08-17T02:34:04.055Z,99532.72
2022-08-17T02:36:37.803Z,99543.25
2022-08-17T02:39:12.863Z,99544.97
2022-08-17T02:41:45.110Z,99540.31
2022-08-17T02:44:13.370Z,99543.72
2022-08-17T02:47:02.152Z,99540.28
2022-08-17T02:49:30.985Z,99534.50
2022-08-17T02:51:58.844Z,99530.16
2022-08-17T02:54:39.196Z,99535.19
2022-08-17T02:57:08.779Z,99529.75
2022-08-17T02:59:38.039Z,99539.66
2022-08-17T03:02:11.694Z,99533.12
2022-08-17T03:04:40.504Z,99536.37
2022-08-17T03:07:08.545Z,99537.16
2022-08-17T03:09:36.268Z,99536.22
2022-08-17T03:12:10.917Z,99537.88
2022-08-17T03:14:41.685Z,99539.59
2022-08-17T03:17:11.352Z,99543.87
2022-08-17T03:19:45.361Z,99539.28
2022-08-17T03:22:36.209Z,99540.28
2022-08-17T03:25:01.858Z,99540.28
2022-08-17T03:27:31.043Z,99549.44
2022-08-17T03:29:59.025Z,99552.31
2022-08-17T03:32:27.473Z,99546.72
2022-08-17T03:35:00.580Z,99551.69
2022-08-17T03:37:29.003Z,99550.53
2022-08-17T03:39:57.895Z,99555.00
2022-08-17T03:42:32.302Z,99555.44
2022-08-17T03:45:03.372Z,99555.38
2022-08-17T03:47:50.042Z,99550.94
2022-08-17T03:50:40.021Z,99551.63
2022-08-17T03:53:29.962Z,99553.44
2022-08-17T03:56:20.596Z,99560.47
2022-08-17T03:58:48.969Z,99559.53
2022-08-17T04:01:18.209Z,99554.84
2022-08-17T04:03:46.671Z,99565.81
2022-08-17T04:06:15.296Z,99564.06
2022-08-17T04:08:42.979Z,99566.78
2022-08-17T04:11:12.432Z,99567.37
2022-08-17T04:13:40.328Z,99572.50
2022-08-17T04:16:08.143Z,99576.00
2022-08-17T04:18:36.196Z,99574.75
2022-08-17T04:21:03.858Z,99578.59
2022-08-17T04:23:34.070Z,99579.75
2022-08-17T04:26:04.094Z,99580.31
2022-08-17T04:28:31.716Z,99584.72
2022-08-17T04:31:01.241Z,99584.59
2022-08-17T04:33:30.512Z,99583.38
2022-08-17T04:36:03.054Z,99587.47
2022-08-17T04:38:35.435Z,99583.63
2022-08-17T04:41:23.377Z,99583.91
2022-08-17T04:43:55.994Z,99592.81
2022-08-17T04:46:34.155Z,99594.12
2022-08-17T04:49:08.953Z,99592.19
2022-08-17T04:51:56.772Z,99595.56
2022-08-17T04:54:30.120Z,99590.28
2022-08-17T04:56:58.380Z,99596.91
2022-08-17T04:59:26.832Z,99596.09
2022-08-17T05:01:55.107Z,99597.59
2022-08-17T05:04:34.506Z,99599.34
2022-08-17T05:07:04.727Z,99600.03
2022-08-17T05:09:32.606Z,99608.88
2022-08-17T05:12:02.393Z,99605.88
2022-08-17T05:14:32.753Z,99608.75
2022-08-17T05:17:07.282Z,99608.47
2022-08-17T05:19:39.994Z,99616.59
2022-08-17T05:22:07.768Z,99613.19
2022-08-17T05:24:40.753Z,99609.72
2022-08-17T05:27:16.761Z,99611.53
2022-08-17T05:29:47.731Z,99614.78
2022-08-17T05:32:38.550Z,99615.47
2022-08-17T05:35:08.525Z,99616.34
2022-08-17T05:37:37.115Z,99611.00
2022-08-17T05:40:06.523Z,99614.22
2022-08-17T05:42:34.938Z,99612.13
2022-08-17T05:45:05.015Z,99611.16
2022-08-17T05:47:51.506Z,99609.91
2022-08-17T05:50:29.933Z,99612.41
2022-08-17T06:00:53.188Z,99613.81
2022-08-17T06:03:34.904Z,99610.22
2022-08-17T06:06:31.589Z,99612.97
2022-08-17T06:09:33.033Z,99616.44
2022-08-17T06:12:26.665Z,99614.56
2022-08-17T06:15:02.080Z,99616.41
2022-08-17T06:17:30.516Z,99620.41
2022-08-17T06:20:11.930Z,99617.16
2022-08-17T06:23:04.693Z,99614.56
2022-08-17T06:25:40.185Z,99619.34
2022-08-17T06:28:13.962Z,99611.59
2022-08-17T06:30:59.352Z,99616.25
2022-08-17T06:33:36.937Z,99614.53
2022-08-17T06:36:29.407Z,99610.94
2022-08-17T06:39:33.408Z,99616.34
2022-08-17T06:42:55.124Z,99625.78
2022-08-17T06:45:11.537Z,99632.53
2022-08-17T06:48:01.406Z,99633.66
2022-08-17T06:50:49.734Z,99640.44
2022-08-17T06:53:26.545Z,99637.47
2022-08-17T06:56:09.750Z,99637.94
2022-08-17T06:58:41.031Z,99631.94
2022-08-17T07:01:23.540Z,99635.66
2022-08-17T07:03:58.017Z,99630.91
2022-08-17T07:06:51.100Z,99630.72
2022-08-17T07:09:28.932Z,99630.41
2022-08-17T07:12:10.218Z,99621.72
2022-08-17T07:14:39.160Z,99632.09
2022-08-17T07:17:11.117Z,99628.66
2022-08-17T07:19:42.528Z,99633.69
2022-08-17T07:22:30.776Z,99622.25
2022-08-17T07:25:20.900Z,99626.56
2022-08-17T07:27:59.860Z,99627.94
2022-08-17T07:30:50.922Z,99624.94
2022-08-17T07:33:23.898Z,99624.44
2022-08-17T07:35:54.361Z,99621.47
2022-08-17T07:38:31.445Z,99626.97
2022-08-17T07:41:03.802Z,99620.22
2022-08-17T07:43:41.977Z,99620.78
2022-08-17T07:46:54.953Z,99623.88
2022-08-17T07:49:46.576Z,99624.22
2022-08-17T07:52:47.924Z,99624.12
2022-08-17T07:55:30.478Z,99622.72
2022-08-17T07:58:00.751Z,99617.25
2022-08-17T08:00:32.317Z,99619.47
2022-08-17T08:03:28.459Z,99618.16
2022-08-17T08:06:02.570Z,99626.78
2022-08-17T08:08:42.468Z,99627.37
2022-08-17T08:11:15.788Z,99621.75
2022-08-17T08:13:50.407Z,99627.09
2022-08-17T08:16:30.444Z,99621.28
2022-08-17T08:19:02.394Z,99626.03
2022-08-17T08:21:59.160Z,99615.00
2022-08-17T08:24:59.323Z,99617.06
2022-08-17T08:27:56.834Z,99616.75
2022-08-17T08:30:28.392Z,99620.25
2022-08-17T08:33:12.722Z,99613.66
2022-08-17T08:37:15.818Z,99615.47
2022-08-17T08:39:20.115Z,99612.44
2022-08-17T08:42:01.691Z,99612.87
2022-08-17T08:45:00.783Z,99607.53
2022-08-17T08:47:44.599Z,99615.28
2022-08-17T08:50:37.599Z,99599.53
2022-08-17T08:53:21.376Z,99613.00
2022-08-17T08:56:10.847Z,99597.06
2022-08-17T08:58:43.866Z,99606.88
2022-08-17T09:01:57.956Z,99606.81
2022-08-17T09:05:20.602Z,99599.81
2022-08-17T09:08:11.547Z,99606.66
2022-08-17T09:11:05.741Z,99608.09
2022-08-17T09:13:45.748Z,99600.69
2022-08-17T09:16:29.992Z,99607.56
2022-08-17T09:19:05.113Z,99614.44
2022-08-17T09:21:55.592Z,99610.50
2022-08-17T09:24:44.470Z,99619.03
2022-08-17T09:27:53.317Z,99614.22
2022-08-17T09:30:21.982Z,99615.28
2022-08-17T09:33:07.894Z,99616.75
2022-08-17T09:35:44.359Z,99611.34
2022-08-17T09:38:32.688Z,99620.09
2022-08-17T09:41:13.484Z,99611.53
2022-08-17T09:43:50.127Z,99605.44
2022-08-17T09:46:29.900Z,99601.16
2022-08-17T09:49:11.135Z,99604.06
2022-08-17T09:51:48.247Z,99612.34
2022-08-17T09:54:42.016Z,99593.47
2022-08-17T09:57:50.658Z,99599.16
2022-08-17T10:00:25.372Z,99602.25
2022-08-17T10:03:16.478Z,99598.47
2022-08-17T10:06:21.784Z,99609.63
2022-08-17T10:09:06.937Z,99598.50
2022-08-17T10:12:20.676Z,99602.00
2022-08-17T10:15:08.150Z,99607.44
2022-08-17T10:17:59.597Z,99609.72
2022-08-17T10:20:37.225Z,99607.47
2022-08-17T10:23:34.693Z,99601.03
2022-08-17T10:26:15.153Z,99603.13
2022-08-17T10:28:50.633Z,99600.47
2022-08-17T10:31:36.272Z,99604.66
2022-08-17T10:34:38.862Z,99607.09
2022-08-17T10:37:53.666Z,99593.38
2022-08-17T10:40:32.773Z,99596.37
2022-08-17T10:43:11.376Z,99601.53
2022-08-17T10:46:29.876Z,99593.53
2022-08-17T10:49:26.017Z,99600.00
2022-08-17T10:51:59.183Z,99592.62
2022-08-17T10:54:49.129Z,99602.13
2022-08-17T10:57:34.641Z,99590.44
2022-08-17T11:00:18.283Z,99589.16
2022-08-17T11:02:51.933Z,99576.78
2022-08-17T11:05:54.300Z,99591.66
2022-08-17T11:08:47.662Z,99575.38
2022-08-17T11:11:35.103Z,99584.34
2022-08-17T11:14:24.118Z,99577.94
2022-08-17T11:17:08.226Z,99579.25
2022-08-17T11:19:55.195Z,99577.41
2022-08-17T11:23:02.078Z,99586.66
2022-08-17T11:25:34.029Z,99580.59
2022-08-17T11:28:25.151Z,99577.53
2022-08-17T11:31:07.778Z,99564.88
2022-08-17T11:33:45.080Z,99568.03
2022-08-17T11:36:22.366Z,99559.16
2022-08-17T11:39:13.741Z,99563.53
2022-08-17T11:41:49.082Z,99565.19
2022-08-17T11:44:38.046Z,99568.56
2022-08-17T11:47:34.574Z,99558.97
2022-08-17T11:50:50.266Z,99563.66
2022-08-17T11:53:37.336Z,99563.50
2022-08-17T11:56:10.602Z,99554.09
2022-08-17T11:58:39.978Z,99544.88
2022-08-17T12:01:26.944Z,99548.41
2022-08-17T12:04:25.983Z,99546.75
2022-08-17T12:07:05.835Z,99537.41
2022-08-17T12:09:40.690Z,99546.50
2022-08-17T12:12:33.352Z,99542.88
2022-08-17T12:15:10.516Z,99550.31
2022-08-17T12:17:43.025Z,99539.69
2022-08-17T12:20:18.870Z,99535.06
2022-08-17T12:22:53.838Z,99528.44
2022-08-17T12:25:41.552Z,99528.06
2022-08-17T12:28:26.971Z,99538.09
2022-08-17T12:31:00.487Z,99521.75
2022-08-17T12:33:29.635Z,99516.97
2022-08-17T12:36:05.952Z,99518.31
2022-08-17T12:38:38.237Z,99513.13
2022-08-17T12:41:34.297Z,99520.81
2022-08-17T12:44:27.353Z,99527.63
2022-08-17T12:47:22.186Z,99523.22
2022-08-17T12:49:53.195Z,99514.47
2022-08-17T12:52:28.202Z,99522.75
2022-08-17T12:55:07.190Z,99517.06
2022-08-17T12:57:44.169Z,99508.41
2022-08-17T13:00:38.288Z,99513.78
2022-08-17T13:03:13.671Z,99516.94
2022-08-17T13:06:06.339Z,99524.69
2022-08-17T13:08:38.726Z,99520.03
2022-08-17T13:11:16.322Z,99512.84
2022-08-17T13:13:47.796Z,99519.19
2022-08-17T13:16:35.738Z,99511.53
2022-08-17T13:19:17.028Z,99506.16
2022-08-17T13:21:57.396Z,99512.13
2022-08-17T13:24:28.017Z,99514.78
2022-08-17T13:27:01.903Z,99503.38
2022-08-17T13:29:51.409Z,99503.19
2022-08-17T13:32:43.616Z,99511.81
2022-08-17T13:35:39.386Z,99498.50
2022-08-17T13:38:12.412Z,99496.50
2022-08-17T13:40:50.597Z,99499.78
2022-08-17T13:43:50.758Z,99504.53
2022-08-17T13:46:52.502Z,99497.09
2022-08-17T13:49:54.157Z,99501.78
2022-08-17T13:52:57.351Z,99500.88
2022-08-17T13:56:37.263Z,99492.69
2022-08-17T13:59:53.552Z,99499.84
2022-08-17T14:02:27.519Z,99500.81
2022-08-17T14:05:14.606Z,99491.84
2022-08-17T14:07:42.827Z,99494.22
2022-08-17T14:10:17.598Z,99491.03
2022-08-17T14:12:46.402Z,99495.28
2022-08-17T14:15:20.928Z,99495.19
2022-08-17T14:17:57.865Z,99496.56
2022-08-17T14:20:29.879Z,99490.44
2022-08-17T14:22:58.436Z,99485.34
2022-08-17T14:25:29.670Z,99480.06
2022-08-17T14:27:57.779Z,99489.38
2022-08-17T14:30:29.791Z,99485.81
2022-08-17T14:33:16.768Z,99492.25
2022-08-17T14:35:53.632Z,99492.81
2022-08-17T14:38:21.971Z,99486.78
2022-08-17T14:40:51.019Z,99483.72
2022-08-17T14:43:20.598Z,99487.28
2022-08-17T14:45:48.760Z,99482.84
2022-08-17T14:48:18.217Z,99480.97
2022-08-17T14:50:46.415Z,99480.97
2022-08-17T14:53:16.259Z,99479.31
2022-08-17T14:55:46.907Z,99478.59
2022-08-17T14:58:16.037Z,99474.09
2022-08-17T15:00:45.316Z,99475.13
2022-08-17T15:03:14.636Z,99475.16
2022-08-17T15:05:44.286Z,99475.31
2022-08-17T15:08:13.009Z,99464.53
2022-08-17T15:10:41.220Z,99466.06
2022-08-17T15:13:17.966Z,99474.87
2022-08-17T15:15:46.502Z,99473.78
2022-08-17T15:18:14.236Z,99470.72
2022-08-17T15:20:43.161Z,99466.28
2022-08-17T15:23:16.373Z,99472.47
2022-08-17T15:25:44.539Z,99477.69
2022-08-17T15:28:12.699Z,99477.69
2022-08-17T15:30:44.930Z,99479.59
2022-08-17T15:33:29.522Z,99483.50
2022-08-17T15:35:59.929Z,99476.31
2022-08-17T15:38:28.976Z,99471.50
2022-08-17T15:40:58.793Z,99474.41
2022-08-17T15:43:32.617Z,99480.25
2022-08-17T15:46:03.605Z,99476.63
2022-08-17T15:48:42.580Z,99475.94
2022-08-17T15:51:10.501Z,99475.03
2022-08-17T15:53:38.671Z,99471.31
2022-08-17T15:56:07.081Z,99479.34
2022-08-17T15:58:36.036Z,99475.87
2022-08-17T16:01:15.136Z,99479.50
2022-08-17T16:04:04.869Z,99483.91
2022-08-17T16:06:35.372Z,99483.19
2022-08-17T16:09:03.945Z,99486.62
2022-08-17T16:11:31.899Z,99471.69
2022-08-17T16:13:59.751Z,99474.38
2022-08-17T16:16:31.504Z,99476.19
2022-08-17T16:18:59.422Z,99472.38
2022-08-17T16:21:27.577Z,99478.50
2022-08-17T16:23:59.271Z,99476.88
2022-08-17T16:26:29.135Z,99473.47
2022-08-17T16:28:59.073Z,99475.59
2022-08-17T16:31:27.284Z,99468.88
2022-08-17T16:33:58.442Z,99474.53
2022-08-17T16:36:54.608Z,99471.72
2022-08-17T16:39:29.431Z,99469.56
2022-08-17T16:41:58.337Z,99472.72
2022-08-17T16:44:31.033Z,99464.59
2022-08-17T16:47:01.173Z,99460.03
2022-08-17T16:49:37.234Z,99463.09
2022-08-17T16:52:10.709Z,99460.47
2022-08-17T16:54:43.951Z,99467.31
2022-08-17T16:57:13.968Z,99464.66
2022-08-17T16:59:44.893Z,99472.34
2022-08-17T17:02:27.013Z,99469.88
2022-08-17T17:05:09.625Z,99466.91
2022-08-17T17:08:03.540Z,99473.41
2022-08-17T17:10:37.582Z,99468.69
2022-08-17T17:13:11.916Z,99473.16
2022-08-17T17:15:47.641Z,99478.16
2022-08-17T17:18:16.855Z,99478.84
2022-08-17T17:20:56.658Z,99481.47
2022-08-17T17:23:35.464Z,99483.34
2022-08-17T17:26:14.527Z,99489.59
2022-08-17T17:28:56.289Z,99492.06
2022-08-17T17:31:25.882Z,99486.72
2022-08-17T17:33:57.178Z,99496.19
2022-08-17T17:36:41.371Z,99497.87
2022-08-17T17:39:20.518Z,99491.72
2022-08-17T17:42:00.795Z,99497.59
2022-08-17T17:44:33.609Z,99497.87
2022-08-17T17:47:02.635Z,99499.31
2022-08-17T17:49:35.965Z,99508.38
2022-08-17T17:52:16.938Z,99517.12
2022-08-17T17:55:24.536Z,99514.19
2022-08-17T17:58:01.210Z,99515.31
2022-08-17T18:00:58.239Z,99517.66
2022-08-17T18:03:33.092Z,99522.16
2022-08-17T18:06:15.040Z,99524.81
2022-08-17T18:08:58.729Z,99524.44
2022-08-17T18:11:54.655Z,99530.72
2022-08-17T18:14:33.314Z,99526.78
2022-08-17T18:17:02.299Z,99533.66
2022-08-17T18:19:31.958Z,99542.94
2022-08-17T18:22:20.636Z,99545.13
2022-08-17T18:24:56.227Z,99548.25
2022-08-17T18:27:34.156Z,99551.41
2022-08-17T18:30:24.401Z,99551.63
2022-08-17T18:32:52.551Z,99555.59
2022-08-17T18:35:22.299Z,99561.41
2022-08-17T18:37:52.988Z,99561.59
2022-08-17T18:40:33.435Z,99561.56
2022-08-17T18:43:08.326Z,99568.47
2022-08-17T18:45:48.447Z,99570.09
2022-08-17T18:48:23.784Z,99569.84
2022-08-17T18:50:54.549Z,99567.72
2022-08-17T18:53:40.804Z,99571.22
2022-08-17T18:56:28.222Z,99580.75
2022-08-17T18:59:28.907Z,99579.22
2022-08-17T19:01:59.154Z,99576.78
2022-08-17T19:04:35.576Z,99581.78
2022-08-17T19:07:25.125Z,99571.53
2022-08-17T19:10:13.987Z,99577.09
2022-08-17T19:12:47.953Z,99578.78
2022-08-17T19:15:19.605Z,99576.88
2022-08-17T19:17:53.413Z,99577.97
2022-08-17T19:20:37.695Z,99585.00
2022-08-17T19:23:12.604Z,99585.25
2022-08-17T19:25:48.318Z,99590.41
2022-08-17T19:28:29.358Z,99588.25
2022-08-17T19:30:59.713Z,99587.44
2022-08-17T19:33:28.322Z,99589.91
2022-08-17T19:36:06.794Z,99588.06
2022-08-17T19:38:41.559Z,99581.91
2022-08-17T19:41:18.903Z,99586.38
2022-08-17T19:43:57.105Z,99599.41
2022-08-17T19:46:29.471Z,99587.25
2022-08-17T19:49:04.056Z,99595.34
2022-08-17T19:51:50.835Z,99589.69
2022-08-17T19:54:38.424Z,99593.03
2022-08-17T19:57:18.711Z,99595.66
2022-08-17T19:59:52.795Z,99590.63
2022-08-17T20:02:32.429Z,99590.34
2022-08-17T20:05:08.147Z,99591.84
2022-08-17T20:07:47.837Z,99590.34
2022-08-17T20:10:27.387Z,99585.50
2022-08-17T20:12:58.337Z,99594.28
2022-08-17T20:15:32.417Z,99583.63
2022-08-17T20:18:03.433Z,99583.75
2022-08-17T20:21:10.780Z,99584.81
2022-08-17T20:24:21.618Z,99588.53
2022-08-17T20:26:59.445Z,99578.03
2022-08-17T20:29:39.677Z,99589.53
2022-08-17T20:32:23.570Z,99582.47
2022-08-17T20:35:04.349Z,99588.38
2022-08-17T20:37:35.027Z,99570.59
2022-08-17T20:40:09.625Z,99583.00
2022-08-17T20:42:39.991Z,99583.09
2022-08-17T20:45:26.420Z,99577.22
2022-08-17T20:48:30.596Z,99569.28
2022-08-17T20:50:56.809Z,99581.19
2022-08-17T20:53:46.765Z,99577.78
2022-08-17T20:56:43.203Z,99579.31
2022-08-17T20:59:34.448Z,99574.50
2022-08-17T21:02:20.761Z,99568.44
2022-08-17T21:04:54.513Z,99576.94
2022-08-17T21:07:32.877Z,99578.06
2022-08-17T21:10:16.815Z,99582.47
2022-08-17T21:12:48.125Z,99576.50
2022-08-17T21:15:38.189Z,99578.12
2022-08-17T21:18:12.034Z,99581.81
2022-08-17T21:20:43.408Z,99581.53
2022-08-17T21:23:24.735Z,99570.31
2022-08-17T21:26:12.823Z,99573.28
2022-08-17T21:29:01.117Z,99581.78
2022-08-17T21:31:37.254Z,99582.97
2022-08-17T21:34:25.987Z,99585.19
2022-08-17T21:36:57.067Z,99580.13
2022-08-17T21:39:33.899Z,99589.06
2022-08-17T21:42:02.411Z,99584.56
2022-08-17T21:44:49.256Z,99594.25
2022-08-17T21:47:24.755Z,99598.91
2022-08-17T21:49:54.329Z,99596.59
2022-08-17T21:52:24.080Z,99595.22
2022-08-17T21:54:58.500Z,99591.09
2022-08-17T21:57:41.473Z,99597.97
2022-08-17T22:00:28.058Z,99608.81
2022-08-17T22:03:04.741Z,99602.59
2022-08-17T22:05:38.198Z,99607.47
2022-08-17T22:08:16.499Z,99615.69
2022-08-17T22:10:49.636Z,99622.66
2022-08-17T22:13:29.790Z,99621.69
2022-08-17T22:16:28.599Z,99621.47
2022-08-17T22:19:00.579Z,99627.34
2022-08-17T22:21:30.710Z,99626.50
2022-08-17T22:24:05.557Z,99632.28
2022-08-17T22:27:00.678Z,99630.22
2022-08-17T22:30:00.354Z,99638.78
2022-08-17T22:32:43.852Z,99639.44
2022-08-17T22:35:30.235Z,99635.22
2022-08-17T22:38:41.425Z,99639.22
2022-08-17T22:41:42.740Z,99645.16
2022-08-17T22:44:22.749Z,99644.50
2022-08-17T22:47:07.276Z,99648.66
2022-08-17T22:50:01.096Z,99648.47
2022-08-17T22:53:02.221Z,99646.47
2022-08-17T22:55:53.218Z,99648.06
2022-08-17T22:58:43.636Z,99647.81
2022-08-17T23:01:33.012Z,99649.59
2022-08-17T23:04:10.332Z,99651.13
2022-08-17T23:06:44.406Z,99661.03
2022-08-17T23:09:14.700Z,99660.09
2022-08-17T23:11:50.045Z,99664.44
2022-08-17T23:14:22.203Z,99662.09
2022-08-17T23:16:53.516Z,99667.06
2022-08-17T23:19:23.191Z,99669.22
2022-08-17T23:21:53.111Z,99691.44
2022-08-17T23:24:25.733Z,99704.56
2022-08-17T23:26:54.772Z,99698.50
2022-08-17T23:29:25.191Z,99693.94
2022-08-17T23:31:55.234Z,99682.41
2022-08-17T23:34:28.753Z,99684.03
2022-08-17T23:37:05.018Z,99675.38
2022-08-17T23:39:36.724Z,99671.88
2022-08-17T23:42:09.739Z,99673.94
2022-08-17T23:44:40.690Z,99667.06
2022-08-17T23:47:10.099Z,99664.75
2022-08-17T23:49:41.087Z,99655.78
2022-08-17T23:52:15.256Z,99656.78
2022-08-17T23:54:47.945Z,99656.38
2022-08-17T23:57:20.492Z,99662.34
